Airfield :
LOGIN :

Register | Disclaimer

   EN    FR    IT 

 










Legend :    VFR   Marginal VFR   IFR   Intensive IFR   Very Intensive IFR
Visi :
Ceiling :
>= 8 km
>= 3000ft
5 to 8 km
1000 to 3000 ft
1500m to 5 km
500 to 1000 ft
800 to 1500m
200 to 500 ft
< 800m
< 200 ft
Symbols :   Thunderstorms  Fog  Heavy snow  Heavy precipitations  Wind > 20 kt
SIGMETs :     Misc.  Thunderstorms  Icing  Turbulence  Mountain Waves  Volcanic Ashes







- Airport Elevation : 1079 ft


ETIK - Illesheim Air Base

CURRENT METAR :
  • 162158Z AUTO 00000KT 9999 CLR 11/11 A3029 RMK AO2 SLP255 T01100110 $

EXPIRED METARs :
  • 162058Z AUTO 00000KT 9999 CLR 13/12 A3030 RMK AO2 SLP260 T01270116 $
  • 161958Z AUTO 00000KT 9999 CLR 12/12 A3030 RMK AO2 SLP263 T01220119 $
  • 161858Z AUTO 00000KT 9999 CLR 12/12 A3030 RMK AO2 SLP266 T01240123 $

TAF TAF ETIK
Valid from the 16 at 21:00 until the 18 at 03:00 UTC


162105Z 1621/1803 18006KT 6000 BR SKC QNH3027INS
BECMG 1700/1701 18006KT 3200 BR SKC QNH3023INS
BECMG 1708/1709 18006KT 9999 NSW SKC QNH3012INS
BECMG 1719/1720 18006KT 8000 BR SKC QNH3010INS TX20/1715Z TN07/1706Z
No reported NOTAMs for that airfield.



MET'MAP, your aeronautical weather chart ! - Copyright ORBIFLY December 2007 - Disclaimer

ORBIFLY MET'MAP TEAM :

Programming & Development : Alexandra Zaïnal
Concept & Development : Baudouin d'Aumeries
Co-Development & Prog : Marc-Olivier Méhu
Technical & hardware support : Manuel Goepfert

Contact : metmap@orbifly.com




SOURCES & CREDITS :

   NOAA